createdAt,value
2022-12-08T00:02:10.760Z,0.43
2022-12-08T00:04:59.905Z,0.42
2022-12-08T00:07:46.756Z,0.34
2022-12-08T00:10:47.404Z,0.40
2022-12-08T00:13:03.846Z,0.39
2022-12-08T00:15:32.014Z,0.39
2022-12-08T00:18:00.274Z,0.39
2022-12-08T00:20:28.774Z,0.37
2022-12-08T00:22:56.992Z,0.36
2022-12-08T00:25:25.277Z,0.34
2022-12-08T00:27:53.473Z,0.32
2022-12-08T00:30:21.873Z,0.31
2022-12-08T00:32:50.257Z,0.29
2022-12-08T00:35:18.492Z,0.26
2022-12-08T00:37:47.323Z,0.24
2022-12-08T00:40:15.765Z,0.23
2022-12-08T00:42:44.049Z,0.21
2022-12-08T00:45:12.471Z,0.19
2022-12-08T00:47:40.742Z,0.18
2022-12-08T00:50:09.882Z,0.16
2022-12-08T00:52:38.137Z,0.13
2022-12-08T00:55:06.553Z,0.12
2022-12-08T00:57:34.849Z,0.12
2022-12-08T01:00:04.618Z,0.01
2022-12-08T01:02:34.514Z,0.10
2022-12-08T01:05:02.923Z,0.08
2022-12-08T01:07:31.073Z,0.07
2022-12-08T01:09:59.668Z,0.07
2022-12-08T01:12:30.491Z,0.07
2022-12-08T01:15:02.227Z,0.06
2022-12-08T01:17:30.986Z,0.06
2022-12-08T01:19:59.900Z,0.04
2022-12-08T01:22:28.213Z,0.02
2022-12-08T01:24:56.635Z,0.04
2022-12-08T01:27:24.807Z,0.03
2022-12-08T01:29:53.055Z,0.03
2022-12-08T01:32:21.255Z,0.02
2022-12-08T01:34:49.583Z,0.01
2022-12-08T01:37:17.864Z,-0.01
2022-12-08T01:39:46.447Z,-0.02
2022-12-08T01:42:25.626Z,-0.11
2022-12-08T01:45:00.871Z,-0.07
2022-12-08T01:47:42.902Z,-0.09
2022-12-08T01:50:15.598Z,-0.20
2022-12-08T01:52:52.901Z,-0.12
2022-12-08T01:55:26.343Z,-0.13
2022-12-08T01:57:59.933Z,-0.15
2022-12-08T02:00:28.390Z,-0.16
2022-12-08T02:03:06.905Z,-0.17
2022-12-08T02:05:39.230Z,-0.18
2022-12-08T02:08:11.477Z,-0.20
2022-12-08T02:10:42.933Z,-0.23
2022-12-08T02:13:16.906Z,-0.31
2022-12-08T02:16:03.459Z,-0.24
2022-12-08T02:18:34.731Z,-0.25
2022-12-08T02:21:26.391Z,-0.25
2022-12-08T02:23:54.646Z,-0.26
2022-12-08T02:26:55.634Z,-0.26
2022-12-08T02:29:45.306Z,-0.26
2022-12-08T02:32:25.843Z,-0.29
2022-12-08T02:35:08.317Z,-0.30
2022-12-08T02:37:48.561Z,-0.31
2022-12-08T02:40:21.067Z,-0.32
2022-12-08T02:42:58.862Z,-0.32
2022-12-08T02:45:26.958Z,-0.32
2022-12-08T02:47:55.451Z,-0.33
2022-12-08T02:50:23.832Z,-0.42
2022-12-08T02:52:52.051Z,-0.34
2022-12-08T02:55:39.803Z,-0.36
2022-12-08T02:58:18.268Z,-0.36
2022-12-08T03:00:52.682Z,-0.36
2022-12-08T03:03:53.173Z,-0.38
2022-12-08T03:06:43.295Z,-0.39
2022-12-08T03:09:22.764Z,-0.40
2022-12-08T03:11:59.219Z,-0.40
2022-12-08T03:14:29.720Z,-0.41
2022-12-08T03:16:59.957Z,-0.43
2022-12-08T03:19:34.582Z,-0.43
2022-12-08T03:22:05.198Z,-0.44
2022-12-08T03:24:40.892Z,-0.53
2022-12-08T03:27:19.258Z,-0.47
2022-12-08T03:29:49.538Z,-0.47
2022-12-08T03:32:29.471Z,-0.48
2022-12-08T03:35:01.338Z,-0.48
2022-12-08T03:37:30.063Z,-0.48
2022-12-08T03:39:58.403Z,-0.48
2022-12-08T03:42:26.724Z,-0.46
2022-12-08T03:44:55.073Z,-0.46
2022-12-08T03:47:23.181Z,-0.47
2022-12-08T03:49:51.612Z,-0.48
2022-12-08T03:52:19.728Z,-0.49
2022-12-08T03:54:48.208Z,-0.51
2022-12-08T03:57:16.540Z,-0.52
2022-12-08T03:59:44.823Z,-0.53
2022-12-08T04:02:13.108Z,-0.55
2022-12-08T04:04:41.572Z,-0.57
2022-12-08T04:07:09.844Z,-0.59
2022-12-08T04:09:39.151Z,-0.60
2022-12-08T04:12:08.541Z,-0.63
2022-12-08T04:14:36.939Z,-0.64
2022-12-08T04:17:05.083Z,-0.65
2022-12-08T04:19:33.460Z,-0.66
2022-12-08T04:22:01.645Z,-0.68
2022-12-08T04:24:29.852Z,-0.68
2022-12-08T04:26:58.084Z,-0.68
2022-12-08T04:29:26.381Z,-0.68
2022-12-08T04:31:54.591Z,-0.67
2022-12-08T04:34:23.415Z,-0.66
2022-12-08T04:36:51.653Z,-0.66
2022-12-08T04:39:20.132Z,-0.67
2022-12-08T04:41:48.380Z,-0.67
2022-12-08T04:44:17.012Z,-0.71
2022-12-08T04:46:45.267Z,-0.67
2022-12-08T04:49:13.738Z,-0.67
2022-12-08T04:51:41.938Z,-0.76
2022-12-08T04:54:10.082Z,-0.66
2022-12-08T04:56:38.267Z,-0.65
2022-12-08T04:59:06.710Z,-0.61
2022-12-08T05:01:35.036Z,-0.57
2022-12-08T05:04:03.448Z,-0.54
2022-12-08T05:06:31.587Z,-0.50
2022-12-08T05:08:59.846Z,-0.47
2022-12-08T05:11:28.038Z,-0.44
2022-12-08T05:13:56.361Z,-0.41
2022-12-08T05:16:24.607Z,-0.39
2022-12-08T05:18:53.053Z,-0.35
2022-12-08T05:21:23.389Z,-0.32
2022-12-08T05:23:51.662Z,-0.29
2022-12-08T05:26:19.775Z,-0.26
2022-12-08T05:28:48.140Z,-0.24
2022-12-08T05:31:17.455Z,-0.31
2022-12-08T05:33:46.533Z,-0.20
2022-12-08T05:36:16.016Z,-0.19
2022-12-08T05:38:46.418Z,-0.17
2022-12-08T05:41:18.605Z,-0.18
2022-12-08T05:43:47.676Z,-0.18
2022-12-08T05:46:16.972Z,-0.19
2022-12-08T05:48:45.624Z,-0.20
2022-12-08T05:51:24.610Z,-0.19
2022-12-08T05:53:53.891Z,-0.21
2022-12-08T05:56:22.718Z,-0.33
2022-12-08T05:58:51.295Z,-0.25
2022-12-08T06:01:22.454Z,-0.26
2022-12-08T06:03:52.039Z,-0.26
2022-12-08T06:06:20.765Z,-0.27
2022-12-08T06:08:49.576Z,-0.28
2022-12-08T06:11:24.037Z,-0.31
2022-12-08T06:13:52.768Z,-0.33
2022-12-08T06:16:20.983Z,-0.35
2022-12-08T06:18:49.651Z,-0.37
2022-12-08T06:21:18.141Z,-0.39
2022-12-08T06:23:51.388Z,-0.41
2022-12-08T06:26:20.005Z,-0.42
2022-12-08T06:28:49.568Z,-0.44
2022-12-08T06:31:23.675Z,-0.44
2022-12-08T06:33:53.463Z,-0.46
2022-12-08T06:36:24.626Z,-0.46
2022-12-08T06:38:53.094Z,-0.46
2022-12-08T06:41:21.954Z,-0.46
2022-12-08T06:43:50.357Z,-0.45
2022-12-08T06:46:19.926Z,-0.45
2022-12-08T06:48:50.603Z,-0.46
2022-12-08T06:51:22.873Z,-0.45
2022-12-08T06:53:51.322Z,-0.46
2022-12-08T06:56:22.493Z,-0.44
2022-12-08T06:58:53.005Z,-0.43
2022-12-08T07:01:22.003Z,-0.43
2022-12-08T07:03:50.523Z,-0.42
2022-12-08T07:06:22.584Z,-0.42
2022-12-08T07:08:51.683Z,-0.41
2022-12-08T07:11:22.197Z,-0.41
2022-12-08T07:13:51.182Z,-0.40
2022-12-08T07:16:20.261Z,-0.39
2022-12-08T07:18:48.729Z,-0.39
2022-12-08T07:21:17.932Z,-0.38
2022-12-08T07:23:50.171Z,-0.37
2022-12-08T07:26:22.768Z,-0.36
2022-12-08T07:28:51.052Z,-0.36
2022-12-08T07:31:22.173Z,-0.39
2022-12-08T07:33:52.073Z,-0.36
2022-12-08T07:36:21.372Z,-0.38
2022-12-08T07:38:53.267Z,-0.39
2022-12-08T07:41:26.071Z,-0.38
2022-12-08T07:43:55.888Z,-0.36
2022-12-08T07:46:25.973Z,-0.35
2022-12-08T07:48:55.481Z,-0.36
2022-12-08T07:51:25.150Z,-0.35
2022-12-08T07:53:55.148Z,-0.31
2022-12-08T07:56:24.000Z,-0.27
2022-12-08T07:58:52.404Z,-0.24
2022-12-08T08:01:29.571Z,-0.21
2022-12-08T08:04:02.009Z,-0.19
2022-12-08T08:06:35.206Z,-0.16
2022-12-08T08:09:04.112Z,-0.12
2022-12-08T08:11:32.441Z,-0.08
2022-12-08T08:14:00.930Z,-0.07
2022-12-08T08:16:33.474Z,-0.03
2022-12-08T08:19:04.801Z,0.01
2022-12-08T08:21:48.413Z,0.03
2022-12-08T08:24:17.839Z,0.06
2022-12-08T08:26:46.077Z,0.06
2022-12-08T08:29:14.188Z,0.09
2022-12-08T08:31:42.836Z,0.14
2022-12-08T08:34:11.286Z,0.22
2022-12-08T08:36:40.420Z,0.29
2022-12-08T08:39:09.370Z,0.37
2022-12-08T08:41:37.784Z,0.49
2022-12-08T08:44:06.203Z,0.62
2022-12-08T08:46:34.512Z,0.81
2022-12-08T08:49:03.075Z,1.01
2022-12-08T08:51:31.612Z,1.18
2022-12-08T08:53:59.877Z,1.38
2022-12-08T08:56:28.083Z,1.46
2022-12-08T08:58:56.371Z,1.51
2022-12-08T09:01:27.555Z,1.52
2022-12-08T09:03:56.525Z,1.63
2022-12-08T09:06:25.022Z,1.77
2022-12-08T09:08:53.288Z,1.83
2022-12-08T09:11:23.609Z,1.75
2022-12-08T09:13:53.807Z,1.64
2022-12-08T09:16:23.149Z,1.89
2022-12-08T09:18:52.058Z,2.13
2022-12-08T09:21:24.355Z,2.05
2022-12-08T09:23:57.593Z,1.90
2022-12-08T09:26:28.025Z,1.75
2022-12-08T09:28:57.192Z,1.59
2022-12-08T09:31:25.790Z,1.44
2022-12-08T09:33:54.095Z,1.36
2022-12-08T09:36:22.371Z,1.26
2022-12-08T09:38:51.816Z,1.13
2022-12-08T09:41:36.548Z,0.98
2022-12-08T09:44:07.274Z,0.77
2022-12-08T09:46:37.857Z,0.78
2022-12-08T09:49:14.368Z,0.73
2022-12-08T09:51:45.114Z,0.69
2022-12-08T09:54:21.214Z,0.70
2022-12-08T09:56:55.290Z,0.69
2022-12-08T09:59:26.206Z,0.65
2022-12-08T10:01:55.456Z,0.64
2022-12-08T10:04:23.968Z,0.58
2022-12-08T10:07:30.948Z,0.59
2022-12-08T10:10:21.186Z,0.62
2022-12-08T10:13:05.830Z,0.61
2022-12-08T10:15:41.963Z,0.58
2022-12-08T10:18:19.570Z,0.54
2022-12-08T10:20:49.893Z,0.46
2022-12-08T10:23:36.666Z,0.42
2022-12-08T10:26:08.233Z,0.35
2022-12-08T10:28:41.402Z,0.36
2022-12-08T10:31:18.143Z,0.37
2022-12-08T10:33:48.302Z,0.38
2022-12-08T10:36:16.979Z,0.39
2022-12-08T10:38:45.202Z,0.43
2022-12-08T10:41:18.291Z,0.40
2022-12-08T10:43:49.853Z,0.53
2022-12-08T10:46:25.985Z,0.56
2022-12-08T10:48:57.174Z,0.61
2022-12-08T10:51:30.129Z,0.64
2022-12-08T10:53:59.451Z,0.65
2022-12-08T10:56:30.950Z,0.68
2022-12-08T10:59:18.553Z,0.71
2022-12-08T11:01:49.954Z,0.79
2022-12-08T11:04:29.975Z,0.89
2022-12-08T11:06:58.311Z,0.87
2022-12-08T11:09:37.765Z,0.85
2022-12-08T11:12:16.736Z,0.83
2022-12-08T11:14:44.975Z,0.79
2022-12-08T11:17:23.204Z,0.83
2022-12-08T11:20:00.638Z,0.85
2022-12-08T11:22:44.031Z,0.89
2022-12-08T11:25:19.312Z,1.04
2022-12-08T11:27:53.092Z,1.09
2022-12-08T11:30:32.239Z,1.15
2022-12-08T11:33:06.750Z,1.22
2022-12-08T11:35:38.915Z,1.25
2022-12-08T11:38:21.479Z,1.17
2022-12-08T11:40:55.451Z,1.04
2022-12-08T11:43:35.570Z,0.96
2022-12-08T11:46:20.066Z,0.92
2022-12-08T11:49:07.211Z,0.89
2022-12-08T11:51:45.497Z,0.83
2022-12-08T11:54:25.508Z,0.75
2022-12-08T11:56:57.612Z,0.70
2022-12-08T11:59:47.343Z,0.60
2022-12-08T12:02:20.571Z,0.49
2022-12-08T12:04:52.810Z,0.42
2022-12-08T12:07:32.938Z,0.35
2022-12-08T12:10:10.324Z,0.30
2022-12-08T12:12:56.504Z,0.30
2022-12-08T12:16:10.980Z,0.34
2022-12-08T12:18:39.183Z,0.32
2022-12-08T12:21:09.932Z,0.27
2022-12-08T12:24:18.609Z,0.23
2022-12-08T12:27:13.400Z,0.19
2022-12-08T12:29:56.936Z,0.19
2022-12-08T12:32:27.398Z,0.18
2022-12-08T12:34:59.139Z,0.14
2022-12-08T12:37:40.031Z,0.12
2022-12-08T12:40:34.169Z,0.13
2022-12-08T12:43:02.640Z,0.13
2022-12-08T12:45:34.915Z,0.11
2022-12-08T12:48:02.959Z,0.04
2022-12-08T12:50:34.431Z,0.02
2022-12-08T12:53:25.996Z,0.11
2022-12-08T12:56:03.988Z,0.11
2022-12-08T12:58:32.348Z,0.07
2022-12-08T13:01:12.789Z,-0.01
2022-12-08T13:03:47.492Z,-0.08
2022-12-08T13:06:23.125Z,-0.12
2022-12-08T13:08:54.860Z,-0.14
2022-12-08T13:11:24.254Z,-0.15
2022-12-08T13:14:04.939Z,-0.15
2022-12-08T13:16:39.473Z,-0.14
2022-12-08T13:19:15.981Z,-0.12
2022-12-08T13:21:44.140Z,-0.10
2022-12-08T13:24:21.171Z,-0.09
2022-12-08T13:27:09.511Z,-0.09
2022-12-08T13:29:40.768Z,-0.08
2022-12-08T13:32:09.766Z,-0.09
2022-12-08T13:34:45.645Z,-0.08
2022-12-08T13:37:20.056Z,-0.06
2022-12-08T13:40:10.790Z,-0.07
2022-12-08T13:42:51.073Z,-0.11
2022-12-08T13:45:59.033Z,-0.10
2022-12-08T13:49:26.268Z,-0.12
2022-12-08T13:57:36.219Z,-0.16
2022-12-08T14:00:08.194Z,-0.19
2022-12-08T14:02:48.179Z,-0.22
2022-12-08T14:05:26.596Z,-0.23
2022-12-08T14:08:03.356Z,-0.35
2022-12-08T14:10:32.255Z,-0.26
2022-12-08T14:13:12.552Z,-0.26
2022-12-08T14:15:41.144Z,-0.27
2022-12-08T14:18:30.567Z,-0.36
2022-12-08T14:21:28.930Z,-0.26
2022-12-08T14:24:03.338Z,-0.26
2022-12-08T14:26:36.177Z,-0.25
2022-12-08T14:29:08.209Z,-0.26
2022-12-08T14:31:36.382Z,-0.26
2022-12-08T14:34:04.981Z,-0.25
2022-12-08T14:36:33.956Z,-0.22
2022-12-08T14:39:02.247Z,-0.21
2022-12-08T14:41:33.204Z,-0.19
2022-12-08T14:44:02.168Z,-0.19
2022-12-08T14:46:30.392Z,-0.17
2022-12-08T14:48:59.849Z,-0.14
2022-12-08T14:51:32.139Z,-0.14
2022-12-08T14:54:08.531Z,-0.10
2022-12-08T14:56:46.807Z,-0.07
2022-12-08T14:59:17.839Z,-0.06
2022-12-08T15:01:47.943Z,-0.05
2022-12-08T15:04:22.567Z,-0.03
2022-12-08T15:07:05.846Z,-0.04
2022-12-08T15:09:43.561Z,-0.02
2022-12-08T15:12:14.544Z,-0.00
2022-12-08T15:14:54.663Z,-0.10
2022-12-08T15:17:51.728Z,0.02
2022-12-08T15:20:33.362Z,0.04
2022-12-08T15:23:04.547Z,0.06
2022-12-08T15:25:32.986Z,0.10
2022-12-08T15:28:03.148Z,0.12
2022-12-08T15:30:31.368Z,0.05
2022-12-08T15:32:59.877Z,0.16
2022-12-08T15:35:28.403Z,0.18
2022-12-08T15:37:56.900Z,0.20
2022-12-08T15:40:27.392Z,0.14
2022-12-08T15:42:55.654Z,0.27
2022-12-08T15:45:30.967Z,0.30
2022-12-08T15:47:59.073Z,0.32
2022-12-08T15:50:27.439Z,0.35
2022-12-08T15:52:55.632Z,0.37
2022-12-08T15:55:24.025Z,0.39
2022-12-08T16:00:58.224Z,0.47
2022-12-08T16:09:33.308Z,0.54
2022-12-08T16:12:20.592Z,0.55
2022-12-08T16:17:37.947Z,0.58
2022-12-08T16:20:15.438Z,0.61
2022-12-08T16:22:56.751Z,0.63
2022-12-08T16:25:52.830Z,0.64
2022-12-08T16:28:52.727Z,0.56
2022-12-08T16:31:15.028Z,0.67
2022-12-08T16:33:45.530Z,0.67
2022-12-08T16:36:13.659Z,0.66
2022-12-08T16:38:41.848Z,0.66
2022-12-08T16:41:36.086Z,0.67
2022-12-08T16:44:06.415Z,0.65
2022-12-08T16:46:36.070Z,0.66
2022-12-08T16:49:04.988Z,0.69
2022-12-08T16:51:33.109Z,0.69
2022-12-08T16:54:01.267Z,0.69
2022-12-08T16:56:33.245Z,0.69
2022-12-08T16:59:02.613Z,0.70
2022-12-08T17:01:30.983Z,0.71
2022-12-08T17:06:47.506Z,0.72
2022-12-08T17:09:15.662Z,0.73
2022-12-08T17:11:44.178Z,0.75
2022-12-08T17:14:13.299Z,0.76
2022-12-08T17:16:42.708Z,0.78
2022-12-08T17:19:13.941Z,0.78
2022-12-08T17:21:43.036Z,0.80
2022-12-08T17:24:12.317Z,0.79
2022-12-08T17:26:41.840Z,0.80
2022-12-08T17:29:09.990Z,0.80
2022-12-08T17:31:38.348Z,0.81
2022-12-08T17:34:11.161Z,0.81
2022-12-08T17:36:39.349Z,0.83
2022-12-08T17:39:12.131Z,0.83
2022-12-08T17:41:44.663Z,0.83
2022-12-08T17:44:17.981Z,0.82
2022-12-08T17:46:52.657Z,0.82
2022-12-08T17:49:36.438Z,0.83
2022-12-08T17:52:08.041Z,0.80
2022-12-08T17:54:36.825Z,0.77
2022-12-08T17:57:05.702Z,0.75
2022-12-08T17:59:34.190Z,0.72
2022-12-08T18:02:02.874Z,0.70
2022-12-08T18:04:31.231Z,0.59
2022-12-08T18:07:01.444Z,0.67
2022-12-08T18:09:31.357Z,0.63
2022-12-08T18:12:00.082Z,0.60
2022-12-08T18:14:28.691Z,0.57
2022-12-08T18:16:56.987Z,0.54
2022-12-08T18:19:26.373Z,0.52
2022-12-08T18:21:55.073Z,0.48
2022-12-08T18:24:23.742Z,0.43
2022-12-08T18:26:52.689Z,0.39
2022-12-08T18:29:22.584Z,0.36
2022-12-08T18:31:51.716Z,0.34
2022-12-08T18:34:20.331Z,0.33
2022-12-08T18:36:49.135Z,0.32
2022-12-08T18:39:24.582Z,0.32
2022-12-08T18:41:53.884Z,0.32
2022-12-08T18:44:22.230Z,0.31
2022-12-08T18:46:51.527Z,0.32
2022-12-08T18:49:20.039Z,0.32
2022-12-08T18:51:48.375Z,0.32
2022-12-08T18:54:16.626Z,0.33
2022-12-08T18:56:45.084Z,0.34
2022-12-08T18:59:14.572Z,0.36
2022-12-08T19:01:43.328Z,0.38
2022-12-08T19:04:27.996Z,0.41
2022-12-08T19:06:57.884Z,0.43
2022-12-08T19:09:27.075Z,0.37
2022-12-08T19:11:56.108Z,0.47
2022-12-08T19:14:28.127Z,0.48
2022-12-08T19:16:57.969Z,0.48
2022-12-08T19:19:27.672Z,0.45
2022-12-08T19:21:56.737Z,0.41
2022-12-08T19:24:25.687Z,0.29
2022-12-08T19:26:54.158Z,0.35
2022-12-08T19:29:22.632Z,0.31
2022-12-08T19:31:51.944Z,0.26
2022-12-08T19:34:23.870Z,0.24
2022-12-08T19:36:52.247Z,0.22
2022-12-08T19:39:41.685Z,0.20
2022-12-08T19:42:36.024Z,0.18
2022-12-08T19:45:16.429Z,0.17
2022-12-08T19:47:45.324Z,0.16
2022-12-08T19:50:34.024Z,0.17
2022-12-08T19:53:21.563Z,0.09
2022-12-08T19:55:51.121Z,0.10
2022-12-08T19:58:22.333Z,0.18
2022-12-08T20:00:50.634Z,0.17
2022-12-08T20:03:20.965Z,0.16
2022-12-08T20:05:59.863Z,0.17
2022-12-08T20:08:29.061Z,0.17
2022-12-08T20:10:59.462Z,0.17
2022-12-08T20:13:44.919Z,0.15
2022-12-08T20:16:15.386Z,0.14
2022-12-08T20:18:44.853Z,0.12
2022-12-08T20:21:14.467Z,0.14
2022-12-08T20:23:43.304Z,0.14
2022-12-08T20:26:13.541Z,0.04
2022-12-08T20:28:42.237Z,0.13
2022-12-08T20:31:26.054Z,0.02
2022-12-08T20:33:54.623Z,0.14
2022-12-08T20:36:23.838Z,0.13
2022-12-08T20:38:54.320Z,0.15
2022-12-08T20:41:23.799Z,0.15
2022-12-08T20:43:52.879Z,0.08
2022-12-08T20:46:21.874Z,0.13
2022-12-08T20:48:50.313Z,0.13
2022-12-08T20:51:19.922Z,0.12
2022-12-08T20:53:51.513Z,0.12
2022-12-08T20:56:22.359Z,0.11
2022-12-08T20:58:52.262Z,0.03
2022-12-08T21:01:23.453Z,0.10
2022-12-08T21:03:52.263Z,0.02
2022-12-08T21:06:23.618Z,0.13
2022-12-08T21:08:52.576Z,0.03
2022-12-08T21:11:21.129Z,0.12
2022-12-08T21:13:49.689Z,0.03
2022-12-08T21:16:18.062Z,0.13
2022-12-08T21:18:46.634Z,0.13
2022-12-08T21:21:15.760Z,0.14
2022-12-08T21:23:45.032Z,0.15
2022-12-08T21:26:16.242Z,0.13
2022-12-08T21:28:45.029Z,0.12
2022-12-08T21:31:16.697Z,-0.05
2022-12-08T21:33:45.465Z,0.13
2022-12-08T21:36:16.790Z,0.13
2022-12-08T21:38:47.009Z,0.15
2022-12-08T21:41:38.349Z,0.15
2022-12-08T21:44:09.655Z,0.18
2022-12-08T21:46:38.229Z,0.20
2022-12-08T21:49:07.094Z,0.22
2022-12-08T21:51:37.944Z,0.24
2022-12-08T21:54:07.017Z,0.25
2022-12-08T21:56:35.832Z,0.29
2022-12-08T21:59:04.222Z,0.31
2022-12-08T22:01:32.508Z,0.34
2022-12-08T22:04:01.530Z,0.35
2022-12-08T22:06:30.978Z,0.36
2022-12-08T22:08:59.751Z,0.37
2022-12-08T22:11:28.622Z,0.39
2022-12-08T22:13:57.063Z,0.40
2022-12-08T22:16:25.533Z,0.40
2022-12-08T22:18:54.127Z,0.40
2022-12-08T22:21:22.412Z,0.41
2022-12-08T22:23:50.846Z,0.41
2022-12-08T22:26:19.301Z,0.41
2022-12-08T22:28:47.595Z,0.42
2022-12-08T22:31:21.172Z,0.42
2022-12-08T22:33:50.748Z,0.43
2022-12-08T22:36:22.419Z,0.43
2022-12-08T22:38:52.380Z,0.39
2022-12-08T22:41:22.159Z,0.42
2022-12-08T22:43:50.851Z,0.43
2022-12-08T22:46:21.587Z,0.43
2022-12-08T22:48:51.415Z,0.42
2022-12-08T22:51:20.309Z,0.43
2022-12-08T22:53:48.937Z,0.43
2022-12-08T22:56:18.638Z,0.43
2022-12-08T22:58:46.987Z,0.44
2022-12-08T23:01:26.251Z,0.45
2022-12-08T23:03:55.077Z,0.46
2022-12-08T23:06:24.249Z,0.47
2022-12-08T23:08:54.055Z,0.48
2022-12-08T23:11:25.882Z,0.49
2022-12-08T23:13:56.318Z,0.47
2022-12-08T23:16:24.919Z,0.49
2022-12-08T23:18:53.333Z,0.49
2022-12-08T23:21:22.191Z,0.49
2022-12-08T23:23:50.494Z,0.49
2022-12-08T23:26:27.513Z,0.48
2022-12-08T23:29:42.684Z,0.48
2022-12-08T23:32:29.340Z,0.48
2022-12-08T23:34:57.920Z,0.48
2022-12-08T23:37:26.310Z,0.49
2022-12-08T23:39:54.868Z,0.48
2022-12-08T23:42:23.400Z,0.48
2022-12-08T23:44:51.834Z,0.50
2022-12-08T23:47:21.038Z,0.50
2022-12-08T23:49:49.420Z,0.51
2022-12-08T23:52:17.658Z,0.52
2022-12-08T23:54:46.109Z,0.51
2022-12-08T23:57:14.381Z,0.51
2022-12-08T23:59:42.657Z,0.51
